Kickapoo, Louisiana
Current Conditions -  °F | °C
As of 9:56 AM on Friday 24 Oct 2014 (Local Time) from KSHV Reporting Station
Clear Clear  
Wind Chill: 62°   Ceiling: Unl
Heat Index: 62°   Visibility: 10mi
Dew Point: 51°   Wind: 0mph
Humidity: 67%   Direction: NA
Pressure: 30.19"   Gusts: NA
Location:  32.1925°N, 93.8233°W
Report Text: KSHV 241456Z 00000KT 10SM CLR 17/11 A3019 RMK AO2 SLP220 T01670106 51010
Loading
Personal Weather Stations






























Interactive Weather Map
Tropical Storm Tracking
New forecast layout! Learn more

10-Day Weather Forecast

Advertisements
Track Severe Weather on mobile